PWSweather.com
Personal Weather Stations
Station Observations
KNEPAPIL52
Papillion, NE

Papillion, NE

Lat: 41.15223312, Lon: -95.99925232

Elevation: 1089

Station Type:

Latest ConditionsUpdated 12:24:00 PM CDT Thursday, Apr 18, 2019
Currently Today's Max Today's Min Today's Average
Temperature 55.0°F12.8°C 55.0°F12.8°C 45.0°F7.2°C 48.0°F8.9°C
Dew Point 42.3°F5.7°C 42.8°F6.0°C 39.9°F4.4°C 41.2°F5.1°C
Winds 5.1 mph SW8.2 kmh SW 11.9 mph -19.2 kmh - - 5.4 mph 8.7 kmh
Wind Gusts 8.1 mph13.0 kmh 14.8 mph23.8 kmh - -
Humidity 62% 85% 62% 77%
Pressure 29.39 in995.3 mb 29.42 in996.3 mb 29.27 in991.2 mb -
Hour Temp Dew Point Humidity Winds Wind Gusts Pressure Precip Precip Rate Daily Precip Total
12:24 PM 55.0°F12.8°C 42.3°F5.7°C 62% 5.1 mph SW8.2 kmh SW 8.1 mph13.0 kmh 29.39 in995.3 mb 0.00 in0.0 mm 0.00 in0.0 mm 0.00 in0.0 mm
12:19 PM 54.5°F12.5°C 42.3°F5.7°C 63% 7.4 mph SW11.9 kmh SW 8.1 mph13.0 kmh 29.40 in995.6 mb 0.00 in0.0 mm 0.00 in0.0 mm 0.00 in0.0 mm
12:14 PM 53.8°F12.1°C 41.5°F5.3°C 63% 5.4 mph S8.7 kmh S 8.1 mph13.0 kmh 29.39 in995.3 mb 0.00 in0.0 mm 0.00 in0.0 mm 0.00 in0.0 mm
12:09 PM 53.8°F12.1°C 41.5°F5.3°C 63% 2.5 mph SW4.0 kmh SW 3.4 mph5.5 kmh 29.40 in995.6 mb 0.00 in0.0 mm 0.00 in0.0 mm 0.00 in0.0 mm
12:04 PM 53.6°F12.0°C 41.4°F5.2°C 63% 4.0 mph SW6.4 kmh SW 4.5 mph7.2 kmh 29.39 in995.3 mb 0.00 in0.0 mm 0.00 in0.0 mm 0.00 in0.0 mm
11:59 AM 54.1°F12.3°C 41.9°F5.5°C 63% 6.5 mph SW10.5 kmh SW 8.1 mph13.0 kmh 29.39 in995.3 mb 0.00 in0.0 mm 0.00 in0.0 mm 0.00 in0.0 mm
11:54 AM 52.9°F11.6°C 41.5°F5.3°C 65% 6.5 mph SW10.5 kmh SW 8.1 mph13.0 kmh 29.39 in995.3 mb 0.00 in0.0 mm 0.00 in0.0 mm 0.00 in0.0 mm
11:49 AM 53.1°F11.7°C 42.4°F5.8°C 67% 5.4 mph WNW8.7 kmh WNW 9.2 mph14.8 kmh 29.40 in995.6 mb 0.00 in0.0 mm 0.00 in0.0 mm 0.00 in0.0 mm
11:44 AM 52.9°F11.6°C 42.3°F5.7°C 67% 3.8 mph SW6.1 kmh SW 5.8 mph9.3 kmh 29.40 in995.6 mb 0.00 in0.0 mm 0.00 in0.0 mm 0.00 in0.0 mm
11:39 AM 52.2°F11.2°C 41.5°F5.3°C 67% 6.5 mph WSW10.5 kmh WSW 8.1 mph13.0 kmh 29.40 in995.6 mb 0.00 in0.0 mm 0.00 in0.0 mm 0.00 in0.0 mm
11:34 AM 52.0°F11.1°C 41.7°F5.4°C 68% 6.0 mph SW9.7 kmh SW 8.1 mph13.0 kmh 29.40 in995.6 mb 0.00 in0.0 mm 0.00 in0.0 mm 0.00 in0.0 mm
11:29 AM 51.8°F11.0°C 41.5°F5.3°C 68% 10.1 mph WSW16.3 kmh WSW 12.5 mph20.1 kmh 29.41 in995.9 mb 0.00 in0.0 mm 0.00 in0.0 mm 0.00 in0.0 mm
11:24 AM 51.8°F11.0°C 41.9°F5.5°C 69% 11.0 mph SW17.7 kmh SW 13.6 mph21.9 kmh 29.41 in995.9 mb 0.00 in0.0 mm 0.00 in0.0 mm 0.00 in0.0 mm
11:19 AM 52.0°F11.1°C 42.1°F5.6°C 69% 9.6 mph SW15.4 kmh SW 11.4 mph18.3 kmh 29.41 in995.9 mb 0.00 in0.0 mm 0.00 in0.0 mm 0.00 in0.0 mm
11:14 AM 52.0°F11.1°C 41.7°F5.4°C 68% 6.5 mph SW10.5 kmh SW 8.1 mph13.0 kmh 29.41 in995.9 mb 0.00 in0.0 mm 0.00 in0.0 mm 0.00 in0.0 mm
11:09 AM 52.5°F11.4°C 42.3°F5.7°C 68% 6.0 mph SW9.7 kmh SW 9.2 mph14.8 kmh 29.42 in996.3 mb 0.00 in0.0 mm 0.00 in0.0 mm 0.00 in0.0 mm
11:04 AM 51.8°F11.0°C 42.4°F5.8°C 70% 5.8 mph S9.3 kmh S 8.1 mph13.0 kmh 29.41 in995.9 mb 0.00 in0.0 mm 0.00 in0.0 mm 0.00 in0.0 mm
10:59 AM 52.0°F11.1°C 42.4°F5.8°C 70% 8.9 mph SW14.3 kmh SW 11.4 mph18.3 kmh 29.40 in995.6 mb 0.00 in0.0 mm 0.00 in0.0 mm 0.00 in0.0 mm
10:54 AM 52.0°F11.1°C 42.8°F6.0°C 71% 8.3 mph SW13.4 kmh SW 11.4 mph18.3 kmh 29.40 in995.6 mb 0.00 in0.0 mm 0.00 in0.0 mm 0.00 in0.0 mm
10:49 AM 51.1°F10.6°C 41.7°F5.4°C 70% 11.6 mph SSW18.7 kmh SSW 14.8 mph23.8 kmh 29.39 in995.3 mb 0.00 in0.0 mm 0.00 in0.0 mm 0.00 in0.0 mm
10:44 AM 51.3°F10.7°C 42.1°F5.6°C 71% 6.9 mph SW11.1 kmh SW 10.3 mph16.6 kmh 29.41 in995.9 mb 0.00 in0.0 mm 0.00 in0.0 mm 0.00 in0.0 mm
10:39 AM 51.4°F10.8°C 42.3°F5.7°C 71% 3.4 mph SSW5.5 kmh SSW 5.8 mph9.3 kmh 29.40 in995.6 mb 0.00 in0.0 mm 0.00 in0.0 mm 0.00 in0.0 mm
10:34 AM 51.4°F10.8°C 42.3°F5.7°C 71% 8.5 mph WSW13.7 kmh WSW 10.3 mph16.6 kmh 29.40 in995.6 mb 0.00 in0.0 mm 0.00 in0.0 mm 0.00 in0.0 mm
10:29 AM 51.4°F10.8°C 42.3°F5.7°C 71% 8.9 mph SW14.3 kmh SW 10.3 mph16.6 kmh 29.40 in995.6 mb 0.00 in0.0 mm 0.00 in0.0 mm 0.00 in0.0 mm
10:24 AM 50.7°F10.4°C 41.7°F5.4°C 71% 8.5 mph WSW13.7 kmh WSW 11.4 mph18.3 kmh 29.40 in995.6 mb 0.00 in0.0 mm 0.00 in0.0 mm 0.00 in0.0 mm
10:19 AM 49.5°F9.7°C 41.2°F5.1°C 73% 9.6 mph SSW15.4 kmh SSW 12.5 mph20.1 kmh 29.41 in995.9 mb 0.00 in0.0 mm 0.00 in0.0 mm 0.00 in0.0 mm
10:14 AM 50.2°F10.1°C 42.3°F5.7°C 74% 9.2 mph SW14.8 kmh SW 10.3 mph16.6 kmh 29.41 in995.9 mb 0.00 in0.0 mm 0.00 in0.0 mm 0.00 in0.0 mm
10:09 AM 49.5°F9.7°C 41.9°F5.5°C 75% 5.1 mph SSW8.2 kmh SSW 6.9 mph11.1 kmh 29.40 in995.6 mb 0.00 in0.0 mm 0.00 in0.0 mm 0.00 in0.0 mm
10:04 AM 49.5°F9.7°C 41.9°F5.5°C 75% 5.6 mph SW9.0 kmh SW 10.3 mph16.6 kmh 29.39 in995.3 mb 0.00 in0.0 mm 0.00 in0.0 mm 0.00 in0.0 mm
09:59 AM 50.4°F10.2°C 42.8°F6.0°C 75% 8.5 mph SSW13.7 kmh SSW 10.3 mph16.6 kmh 29.39 in995.3 mb 0.00 in0.0 mm 0.00 in0.0 mm 0.00 in0.0 mm
09:54 AM 50.4°F10.2°C 42.4°F5.8°C 74% 8.7 mph SW14.0 kmh SW 10.3 mph16.6 kmh 29.39 in995.3 mb 0.00 in0.0 mm 0.00 in0.0 mm 0.00 in0.0 mm
09:49 AM 49.6°F9.8°C 41.7°F5.4°C 74% 5.4 mph WSW8.7 kmh WSW 6.9 mph11.1 kmh 29.39 in995.3 mb 0.00 in0.0 mm 0.00 in0.0 mm 0.00 in0.0 mm
09:44 AM 48.6°F9.2°C 41.4°F5.2°C 76% 6.0 mph WSW9.7 kmh WSW 8.1 mph13.0 kmh 29.39 in995.3 mb 0.00 in0.0 mm 0.00 in0.0 mm 0.00 in0.0 mm
09:39 AM 48.0°F8.9°C 41.2°F5.1°C 77% 7.6 mph SW12.2 kmh SW 10.3 mph16.6 kmh 29.39 in995.3 mb 0.00 in0.0 mm 0.00 in0.0 mm 0.00 in0.0 mm
09:34 AM 48.0°F8.9°C 41.2°F5.1°C 77% 8.5 mph WSW13.7 kmh WSW 10.3 mph16.6 kmh 29.39 in995.3 mb 0.00 in0.0 mm 0.00 in0.0 mm 0.00 in0.0 mm
09:29 AM 47.8°F8.8°C 41.0°F5.0°C 77% 8.9 mph SW14.3 kmh SW 12.5 mph20.1 kmh 29.39 in995.3 mb 0.00 in0.0 mm 0.00 in0.0 mm 0.00 in0.0 mm
09:24 AM 47.8°F8.8°C 41.4°F5.2°C 78% 9.4 mph WSW15.1 kmh WSW 12.5 mph20.1 kmh 29.39 in995.3 mb 0.00 in0.0 mm 0.00 in0.0 mm 0.00 in0.0 mm
09:19 AM 47.8°F8.8°C 41.4°F5.2°C 78% 6.0 mph SW9.7 kmh SW 6.9 mph11.1 kmh 29.39 in995.3 mb 0.00 in0.0 mm 0.00 in0.0 mm 0.00 in0.0 mm
09:14 AM 47.8°F8.8°C 41.4°F5.2°C 78% 4.3 mph SSW6.9 kmh SSW 5.8 mph9.3 kmh 29.39 in995.3 mb 0.00 in0.0 mm 0.00 in0.0 mm 0.00 in0.0 mm
09:09 AM 47.5°F8.6°C 41.4°F5.2°C 79% 3.4 mph SW5.5 kmh SW 4.5 mph7.2 kmh 29.39 in995.3 mb 0.00 in0.0 mm 0.00 in0.0 mm 0.00 in0.0 mm
09:04 AM 47.3°F8.5°C 41.2°F5.1°C 79% 2.9 mph SSW4.7 kmh SSW 4.5 mph7.2 kmh 29.38 in994.9 mb 0.00 in0.0 mm 0.00 in0.0 mm 0.00 in0.0 mm
08:59 AM 47.1°F8.4°C 41.0°F5.0°C 79% 9.4 mph SW15.1 kmh SW 11.4 mph18.3 kmh 29.38 in994.9 mb 0.00 in0.0 mm 0.00 in0.0 mm 0.00 in0.0 mm
08:54 AM 47.3°F8.5°C 41.4°F5.2°C 80% 4.7 mph SW7.6 kmh SW 5.8 mph9.3 kmh 29.38 in994.9 mb 0.00 in0.0 mm 0.00 in0.0 mm 0.00 in0.0 mm
08:49 AM 47.1°F8.4°C 41.2°F5.1°C 80% 4.5 mph SW7.2 kmh SW 5.8 mph9.3 kmh 29.38 in994.9 mb 0.00 in0.0 mm 0.00 in0.0 mm 0.00 in0.0 mm
08:44 AM 47.1°F8.4°C 41.2°F5.1°C 80% 6.5 mph SW10.5 kmh SW 9.2 mph14.8 kmh 29.39 in995.3 mb 0.00 in0.0 mm 0.00 in0.0 mm 0.00 in0.0 mm
08:39 AM 46.8°F8.2°C 41.0°F5.0°C 80% 8.5 mph SW13.7 kmh SW 10.3 mph16.6 kmh 29.39 in995.3 mb 0.00 in0.0 mm 0.00 in0.0 mm 0.00 in0.0 mm
08:34 AM 46.6°F8.1°C 41.0°F5.0°C 81% 6.9 mph SW11.1 kmh SW 9.2 mph14.8 kmh 29.38 in994.9 mb 0.00 in0.0 mm 0.00 in0.0 mm 0.00 in0.0 mm
08:29 AM 46.4°F8.0°C 40.8°F4.9°C 81% 6.9 mph SW11.1 kmh SW 8.1 mph13.0 kmh 29.37 in994.6 mb 0.00 in0.0 mm 0.00 in0.0 mm 0.00 in0.0 mm
08:24 AM 46.2°F7.9°C 41.0°F5.0°C 82% 7.2 mph SW11.6 kmh SW 8.1 mph13.0 kmh 29.37 in994.6 mb 0.00 in0.0 mm 0.00 in0.0 mm 0.00 in0.0 mm
08:19 AM 46.0°F7.8°C 40.8°F4.9°C 82% 6.5 mph SW10.5 kmh SW 6.9 mph11.1 kmh 29.38 in994.9 mb 0.00 in0.0 mm 0.00 in0.0 mm 0.00 in0.0 mm
08:14 AM 46.0°F7.8°C 40.8°F4.9°C 82% 6.5 mph WSW10.5 kmh WSW 8.1 mph13.0 kmh 29.38 in994.9 mb 0.00 in0.0 mm 0.00 in0.0 mm 0.00 in0.0 mm
08:09 AM 45.9°F7.7°C 40.6°F4.8°C 82% 10.3 mph SW16.6 kmh SW 13.6 mph21.9 kmh 29.37 in994.6 mb 0.00 in0.0 mm 0.00 in0.0 mm 0.00 in0.0 mm
08:04 AM 45.9°F7.7°C 41.0°F5.0°C 83% 6.0 mph S9.7 kmh S 6.9 mph11.1 kmh 29.36 in994.2 mb 0.00 in0.0 mm 0.00 in0.0 mm 0.00 in0.0 mm
07:59 AM 46.0°F7.8°C 41.2°F5.1°C 83% 5.4 mph SW8.7 kmh SW 6.9 mph11.1 kmh 29.35 in993.9 mb 0.00 in0.0 mm 0.00 in0.0 mm 0.00 in0.0 mm
07:54 AM 46.0°F7.8°C 41.2°F5.1°C 83% 6.5 mph SW10.5 kmh SW 9.2 mph14.8 kmh 29.35 in993.9 mb 0.00 in0.0 mm 0.00 in0.0 mm 0.00 in0.0 mm
07:49 AM 46.2°F7.9°C 41.4°F5.2°C 83% 6.9 mph SW11.1 kmh SW 10.3 mph16.6 kmh 29.35 in993.9 mb 0.00 in0.0 mm 0.00 in0.0 mm 0.00 in0.0 mm
07:44 AM 46.0°F7.8°C 41.2°F5.1°C 83% 6.5 mph SW10.5 kmh SW 8.1 mph13.0 kmh 29.34 in993.6 mb 0.00 in0.0 mm 0.00 in0.0 mm 0.00 in0.0 mm
07:39 AM 46.0°F7.8°C 41.2°F5.1°C 83% 4.9 mph SW7.9 kmh SW 5.8 mph9.3 kmh 29.34 in993.6 mb 0.00 in0.0 mm 0.00 in0.0 mm 0.00 in0.0 mm
07:34 AM 45.9°F7.7°C 41.2°F5.1°C 84% 2.9 mph SW4.7 kmh SW 3.4 mph5.5 kmh 29.33 in993.2 mb 0.00 in0.0 mm 0.00 in0.0 mm 0.00 in0.0 mm
07:29 AM 45.7°F7.6°C 41.2°F5.1°C 84% 2.5 mph SSW4.0 kmh SSW 3.4 mph5.5 kmh 29.33 in993.2 mb 0.00 in0.0 mm 0.00 in0.0 mm 0.00 in0.0 mm
07:24 AM 45.5°F7.5°C 41.0°F5.0°C 84% 3.8 mph SW6.1 kmh SW 4.5 mph7.2 kmh 29.32 in992.9 mb 0.00 in0.0 mm 0.00 in0.0 mm 0.00 in0.0 mm
07:19 AM 45.7°F7.6°C 41.2°F5.1°C 84% 4.7 mph SW7.6 kmh SW 6.9 mph11.1 kmh 29.32 in992.9 mb 0.00 in0.0 mm 0.00 in0.0 mm 0.00 in0.0 mm
07:14 AM 45.7°F7.6°C 41.2°F5.1°C 84% 4.5 mph SW7.2 kmh SW 5.8 mph9.3 kmh 29.32 in992.9 mb 0.00 in0.0 mm 0.00 in0.0 mm 0.00 in0.0 mm
07:09 AM 45.5°F7.5°C 41.0°F5.0°C 84% 6.9 mph SW11.1 kmh SW 10.3 mph16.6 kmh 29.32 in992.9 mb 0.00 in0.0 mm 0.00 in0.0 mm 0.00 in0.0 mm
07:04 AM 45.3°F7.4°C 41.0°F5.0°C 85% 6.0 mph SW9.7 kmh SW 6.9 mph11.1 kmh 29.32 in992.9 mb 0.00 in0.0 mm 0.00 in0.0 mm 0.00 in0.0 mm
06:59 AM 45.0°F7.2°C 40.6°F4.8°C 85% 4.5 mph SW7.2 kmh SW 5.8 mph9.3 kmh 29.32 in992.9 mb 0.00 in0.0 mm 0.00 in0.0 mm 0.00 in0.0 mm
06:54 AM 45.0°F7.2°C 40.6°F4.8°C 85% 4.0 mph SW6.4 kmh SW 4.5 mph7.2 kmh 29.32 in992.9 mb 0.00 in0.0 mm 0.00 in0.0 mm 0.00 in0.0 mm
06:49 AM 45.0°F7.2°C 40.6°F4.8°C 85% 5.1 mph SW8.2 kmh SW 5.8 mph9.3 kmh 29.32 in992.9 mb 0.00 in0.0 mm 0.00 in0.0 mm 0.00 in0.0 mm
06:44 AM 45.0°F7.2°C 40.5°F4.7°C 84% 2.9 mph SSW4.7 kmh SSW 4.5 mph7.2 kmh 29.32 in992.9 mb 0.00 in0.0 mm 0.00 in0.0 mm 0.00 in0.0 mm
06:39 AM 45.0°F7.2°C 40.5°F4.7°C 84% 4.0 mph SW6.4 kmh SW 5.8 mph9.3 kmh 29.32 in992.9 mb 0.00 in0.0 mm 0.00 in0.0 mm 0.00 in0.0 mm
06:34 AM 45.1°F7.3°C 40.6°F4.8°C 84% 6.0 mph SW9.7 kmh SW 8.1 mph13.0 kmh 29.32 in992.9 mb 0.00 in0.0 mm 0.00 in0.0 mm 0.00 in0.0 mm
06:29 AM 45.0°F7.2°C 40.5°F4.7°C 84% 4.5 mph SSW7.2 kmh SSW 5.8 mph9.3 kmh 29.31 in992.6 mb 0.00 in0.0 mm 0.00 in0.0 mm 0.00 in0.0 mm
06:24 AM 45.1°F7.3°C 40.6°F4.8°C 84% 3.8 mph WSW6.1 kmh WSW 4.5 mph7.2 kmh 29.31 in992.6 mb 0.00 in0.0 mm 0.00 in0.0 mm 0.00 in0.0 mm
06:19 AM 45.3°F7.4°C 40.5°F4.7°C 83% 5.4 mph SSW8.7 kmh SSW 6.9 mph11.1 kmh 29.30 in992.2 mb 0.00 in0.0 mm 0.00 in0.0 mm 0.00 in0.0 mm
06:14 AM 45.5°F7.5°C 40.6°F4.8°C 83% 4.0 mph SSW6.4 kmh SSW 5.8 mph9.3 kmh 29.31 in992.6 mb 0.00 in0.0 mm 0.00 in0.0 mm 0.00 in0.0 mm
06:09 AM 45.7°F7.6°C 40.5°F4.7°C 82% 7.6 mph SW12.2 kmh SW 9.2 mph14.8 kmh 29.32 in992.9 mb 0.00 in0.0 mm 0.00 in0.0 mm 0.00 in0.0 mm
06:04 AM 45.9°F7.7°C 40.3°F4.6°C 81% 7.2 mph SW11.6 kmh SW 8.1 mph13.0 kmh 29.32 in992.9 mb 0.00 in0.0 mm 0.00 in0.0 mm 0.00 in0.0 mm
05:59 AM 46.0°F7.8°C 40.5°F4.7°C 81% 4.9 mph S7.9 kmh S 5.8 mph9.3 kmh 29.32 in992.9 mb 0.00 in0.0 mm 0.00 in0.0 mm 0.00 in0.0 mm
05:54 AM 46.2°F7.9°C 40.5°F4.7°C 80% 5.4 mph S8.7 kmh S 8.1 mph13.0 kmh 29.32 in992.9 mb 0.00 in0.0 mm 0.00 in0.0 mm 0.00 in0.0 mm
05:49 AM 46.2°F7.9°C 40.5°F4.7°C 80% 5.4 mph SW8.7 kmh SW 8.1 mph13.0 kmh 29.32 in992.9 mb 0.00 in0.0 mm 0.00 in0.0 mm 0.00 in0.0 mm
05:44 AM 46.4°F8.0°C 40.6°F4.8°C 80% 3.6 mph SW5.8 kmh SW 4.5 mph7.2 kmh 29.32 in992.9 mb 0.00 in0.0 mm 0.00 in0.0 mm 0.00 in0.0 mm
05:39 AM 46.6°F8.1°C 40.5°F4.7°C 79% 5.8 mph SSW9.3 kmh SSW 8.1 mph13.0 kmh 29.31 in992.6 mb 0.00 in0.0 mm 0.00 in0.0 mm 0.00 in0.0 mm
05:34 AM 46.6°F8.1°C 40.1°F4.5°C 78% 5.4 mph SW8.7 kmh SW 6.9 mph11.1 kmh 29.32 in992.9 mb 0.00 in0.0 mm 0.00 in0.0 mm 0.00 in0.0 mm
05:29 AM 46.9°F8.3°C 40.5°F4.7°C 78% 1.3 mph SSE2.1 kmh SSE 3.4 mph5.5 kmh 29.32 in992.9 mb 0.00 in0.0 mm 0.00 in0.0 mm 0.00 in0.0 mm
05:24 AM 46.9°F8.3°C 40.1°F4.5°C 77% 6.9 mph SW11.1 kmh SW 9.2 mph14.8 kmh 29.31 in992.6 mb 0.00 in0.0 mm 0.00 in0.0 mm 0.00 in0.0 mm
05:19 AM 46.9°F8.3°C 40.1°F4.5°C 77% 4.7 mph SSE7.6 kmh SSE 5.8 mph9.3 kmh 29.32 in992.9 mb 0.00 in0.0 mm 0.00 in0.0 mm 0.00 in0.0 mm
05:14 AM 47.1°F8.4°C 39.9°F4.4°C 76% 5.4 mph SW8.7 kmh SW 8.1 mph13.0 kmh 29.32 in992.9 mb 0.00 in0.0 mm 0.00 in0.0 mm 0.00 in0.0 mm
05:09 AM 47.1°F8.4°C 39.9°F4.4°C 76% 2.7 mph SW4.3 kmh SW 3.4 mph5.5 kmh 29.31 in992.6 mb 0.00 in0.0 mm 0.00 in0.0 mm 0.00 in0.0 mm
05:04 AM 47.1°F8.4°C 39.9°F4.4°C 76% 5.4 mph SSW8.7 kmh SSW 6.9 mph11.1 kmh 29.32 in992.9 mb 0.00 in0.0 mm 0.00 in0.0 mm 0.00 in0.0 mm
04:59 AM 47.3°F8.5°C 40.1°F4.5°C 76% 3.6 mph SW5.8 kmh SW 4.5 mph7.2 kmh 29.31 in992.6 mb 0.00 in0.0 mm 0.00 in0.0 mm 0.00 in0.0 mm
04:54 AM 47.3°F8.5°C 40.1°F4.5°C 76% 6.5 mph SSW10.5 kmh SSW 9.2 mph14.8 kmh 29.32 in992.9 mb 0.00 in0.0 mm 0.00 in0.0 mm 0.00 in0.0 mm
04:49 AM 47.3°F8.5°C 40.1°F4.5°C 76% 2.7 mph S4.3 kmh S 4.5 mph7.2 kmh 29.31 in992.6 mb 0.00 in0.0 mm 0.00 in0.0 mm 0.00 in0.0 mm
04:44 AM 47.3°F8.5°C 40.1°F4.5°C 76% 4.9 mph SW7.9 kmh SW 8.1 mph13.0 kmh 29.31 in992.6 mb 0.00 in0.0 mm 0.00 in0.0 mm 0.00 in0.0 mm
04:39 AM 47.3°F8.5°C 40.1°F4.5°C 76% 4.0 mph SSW6.4 kmh SSW 4.5 mph7.2 kmh 29.31 in992.6 mb 0.00 in0.0 mm 0.00 in0.0 mm 0.00 in0.0 mm
04:34 AM 47.5°F8.6°C 40.6°F4.8°C 77% 1.3 mph S2.1 kmh S 2.2 mph3.5 kmh 29.30 in992.2 mb 0.00 in0.0 mm 0.00 in0.0 mm 0.00 in0.0 mm
04:29 AM 47.5°F8.6°C 40.6°F4.8°C 77% 0.2 mph SSE0.3 kmh SSE 1.1 mph1.8 kmh 29.30 in992.2 mb 0.00 in0.0 mm 0.00 in0.0 mm 0.00 in0.0 mm
04:24 AM 47.5°F8.6°C 40.6°F4.8°C 77% 3.4 mph SW5.5 kmh SW 5.8 mph9.3 kmh 29.31 in992.6 mb 0.00 in0.0 mm 0.00 in0.0 mm 0.00 in0.0 mm
04:19 AM 47.5°F8.6°C 40.6°F4.8°C 77% 3.1 mph WSW5.0 kmh WSW 4.5 mph7.2 kmh 29.29 in991.9 mb 0.00 in0.0 mm 0.00 in0.0 mm 0.00 in0.0 mm
04:14 AM 47.7°F8.7°C 41.2°F5.1°C 78% 2.5 mph S4.0 kmh S 3.4 mph5.5 kmh 29.29 in991.9 mb 0.00 in0.0 mm 0.00 in0.0 mm 0.00 in0.0 mm
04:09 AM 47.7°F8.7°C 40.8°F4.9°C 77% 6.0 mph SW9.7 kmh SW 6.9 mph11.1 kmh 29.29 in991.9 mb 0.00 in0.0 mm 0.00 in0.0 mm 0.00 in0.0 mm
04:04 AM 47.7°F8.7°C 41.2°F5.1°C 78% 7.8 mph S12.6 kmh S 11.4 mph18.3 kmh 29.29 in991.9 mb 0.00 in0.0 mm 0.00 in0.0 mm 0.00 in0.0 mm
03:59 AM 47.7°F8.7°C 41.2°F5.1°C 78% 4.0 mph SSW6.4 kmh SSW 5.8 mph9.3 kmh 29.29 in991.9 mb 0.00 in0.0 mm 0.00 in0.0 mm 0.00 in0.0 mm
03:54 AM 47.8°F8.8°C 41.4°F5.2°C 78% 10.1 mph SW16.3 kmh SW 13.6 mph21.9 kmh 29.29 in991.9 mb 0.00 in0.0 mm 0.00 in0.0 mm 0.00 in0.0 mm
03:49 AM 47.8°F8.8°C 41.0°F5.0°C 77% 8.5 mph SSW13.7 kmh SSW 10.3 mph16.6 kmh 29.30 in992.2 mb 0.00 in0.0 mm 0.00 in0.0 mm 0.00 in0.0 mm
03:44 AM 48.0°F8.9°C 41.2°F5.1°C 77% 7.8 mph SW12.6 kmh SW 10.3 mph16.6 kmh 29.30 in992.2 mb 0.00 in0.0 mm 0.00 in0.0 mm 0.00 in0.0 mm
03:39 AM 47.8°F8.8°C 40.6°F4.8°C 76% 8.9 mph SW14.3 kmh SW 12.5 mph20.1 kmh 29.29 in991.9 mb 0.00 in0.0 mm 0.00 in0.0 mm 0.00 in0.0 mm
03:34 AM 47.8°F8.8°C 41.0°F5.0°C 77% 11.9 mph SE19.2 kmh SE 14.8 mph23.8 kmh 29.29 in991.9 mb 0.00 in0.0 mm 0.00 in0.0 mm 0.00 in0.0 mm
03:29 AM 47.8°F8.8°C 41.0°F5.0°C 77% 6.7 mph SW10.8 kmh SW 8.1 mph13.0 kmh 29.29 in991.9 mb 0.00 in0.0 mm 0.00 in0.0 mm 0.00 in0.0 mm
03:24 AM 47.7°F8.7°C 40.8°F4.9°C 77% 4.5 mph SSW7.2 kmh SSW 6.9 mph11.1 kmh 29.29 in991.9 mb 0.00 in0.0 mm 0.00 in0.0 mm 0.00 in0.0 mm
03:19 AM 47.7°F8.7°C 41.2°F5.1°C 78% 6.0 mph WSW9.7 kmh WSW 8.1 mph13.0 kmh 29.28 in991.5 mb 0.00 in0.0 mm 0.00 in0.0 mm 0.00 in0.0 mm
03:14 AM 47.8°F8.8°C 41.0°F5.0°C 77% 3.8 mph WSW6.1 kmh WSW 4.5 mph7.2 kmh 29.28 in991.5 mb 0.00 in0.0 mm 0.00 in0.0 mm 0.00 in0.0 mm
03:09 AM 47.7°F8.7°C 40.8°F4.9°C 77% 6.5 mph WSW10.5 kmh WSW 9.2 mph14.8 kmh 29.27 in991.2 mb 0.00 in0.0 mm 0.00 in0.0 mm 0.00 in0.0 mm
03:04 AM 47.7°F8.7°C 41.2°F5.1°C 78% 4.5 mph SW7.2 kmh SW 5.8 mph9.3 kmh 29.27 in991.2 mb 0.00 in0.0 mm 0.00 in0.0 mm 0.00 in0.0 mm
02:59 AM 47.5°F8.6°C 41.0°F5.0°C 78% 3.8 mph S6.1 kmh S 4.5 mph7.2 kmh 29.27 in991.2 mb 0.00 in0.0 mm 0.00 in0.0 mm 0.00 in0.0 mm
02:54 AM 47.3°F8.5°C 40.8°F4.9°C 78% 2.9 mph SW4.7 kmh SW 3.4 mph5.5 kmh 29.28 in991.5 mb 0.00 in0.0 mm 0.00 in0.0 mm 0.00 in0.0 mm
02:49 AM 47.1°F8.4°C 40.6°F4.8°C 78% 4.7 mph SW7.6 kmh SW 5.8 mph9.3 kmh 29.28 in991.5 mb 0.00 in0.0 mm 0.00 in0.0 mm 0.00 in0.0 mm
02:44 AM 47.1°F8.4°C 41.0°F5.0°C 79% 3.8 mph SSW6.1 kmh SSW 4.5 mph7.2 kmh 29.28 in991.5 mb 0.00 in0.0 mm 0.00 in0.0 mm 0.00 in0.0 mm
02:39 AM 47.3°F8.5°C 41.2°F5.1°C 79% 2.7 mph SSE4.3 kmh SSE 3.4 mph5.5 kmh 29.28 in991.5 mb 0.00 in0.0 mm 0.00 in0.0 mm 0.00 in0.0 mm
02:34 AM 47.3°F8.5°C 40.8°F4.9°C 78% 3.4 mph SW5.5 kmh SW 4.5 mph7.2 kmh 29.28 in991.5 mb 0.00 in0.0 mm 0.00 in0.0 mm 0.00 in0.0 mm
02:29 AM 47.3°F8.5°C 41.2°F5.1°C 79% 1.8 mph S2.9 kmh S 3.4 mph5.5 kmh 29.29 in991.9 mb 0.00 in0.0 mm 0.00 in0.0 mm 0.00 in0.0 mm
02:24 AM 47.3°F8.5°C 41.2°F5.1°C 79% 6.0 mph SE9.7 kmh SE 9.2 mph14.8 kmh 29.29 in991.9 mb 0.00 in0.0 mm 0.00 in0.0 mm 0.00 in0.0 mm
02:19 AM 47.3°F8.5°C 41.2°F5.1°C 79% 3.4 mph S5.5 kmh S 3.4 mph5.5 kmh 29.29 in991.9 mb 0.00 in0.0 mm 0.00 in0.0 mm 0.00 in0.0 mm
02:14 AM 47.3°F8.5°C 41.2°F5.1°C 79% 3.1 mph WSW5.0 kmh WSW 4.5 mph7.2 kmh 29.29 in991.9 mb 0.00 in0.0 mm 0.00 in0.0 mm 0.00 in0.0 mm
02:09 AM 47.3°F8.5°C 41.2°F5.1°C 79% 3.1 mph S5.0 kmh S 4.5 mph7.2 kmh 29.29 in991.9 mb 0.00 in0.0 mm 0.00 in0.0 mm 0.00 in0.0 mm
02:04 AM 47.3°F8.5°C 41.2°F5.1°C 79% 2.5 mph S4.0 kmh S 3.4 mph5.5 kmh 29.28 in991.5 mb 0.00 in0.0 mm 0.00 in0.0 mm 0.00 in0.0 mm
01:59 AM 47.1°F8.4°C 41.0°F5.0°C 79% 2.9 mph SE4.7 kmh SE 3.4 mph5.5 kmh 29.28 in991.5 mb 0.00 in0.0 mm 0.00 in0.0 mm 0.00 in0.0 mm
01:54 AM 47.1°F8.4°C 41.0°F5.0°C 79% 2.7 mph SW4.3 kmh SW 3.4 mph5.5 kmh 29.27 in991.2 mb 0.00 in0.0 mm 0.00 in0.0 mm 0.00 in0.0 mm
01:49 AM 47.1°F8.4°C 41.0°F5.0°C 79% 2.2 mph S3.5 kmh S 4.5 mph7.2 kmh 29.27 in991.2 mb 0.00 in0.0 mm 0.00 in0.0 mm 0.00 in0.0 mm
01:44 AM 47.1°F8.4°C 41.2°F5.1°C 80% 7.6 mph SSW12.2 kmh SSW 9.2 mph14.8 kmh 29.27 in991.2 mb 0.00 in0.0 mm 0.00 in0.0 mm 0.00 in0.0 mm
01:39 AM 47.3°F8.5°C 41.2°F5.1°C 79% 5.1 mph SW8.2 kmh SW 6.9 mph11.1 kmh 29.28 in991.5 mb 0.00 in0.0 mm 0.00 in0.0 mm 0.00 in0.0 mm
01:34 AM 47.1°F8.4°C 41.2°F5.1°C 80% 3.8 mph S6.1 kmh S 5.8 mph9.3 kmh 29.29 in991.9 mb 0.00 in0.0 mm 0.00 in0.0 mm 0.00 in0.0 mm
01:29 AM 47.1°F8.4°C 41.2°F5.1°C 80% 3.8 mph SW6.1 kmh SW 6.9 mph11.1 kmh 29.29 in991.9 mb 0.00 in0.0 mm 0.00 in0.0 mm 0.00 in0.0 mm
01:24 AM 46.9°F8.3°C 41.4°F5.2°C 81% 4.3 mph SW6.9 kmh SW 6.9 mph11.1 kmh 29.29 in991.9 mb 0.00 in0.0 mm 0.00 in0.0 mm 0.00 in0.0 mm
01:19 AM 46.9°F8.3°C 41.4°F5.2°C 81% 5.1 mph SW8.2 kmh SW 5.8 mph9.3 kmh 29.29 in991.9 mb 0.00 in0.0 mm 0.00 in0.0 mm 0.00 in0.0 mm
01:14 AM 46.8°F8.2°C 41.2°F5.1°C 81% 3.1 mph SSE5.0 kmh SSE 4.5 mph7.2 kmh 29.30 in992.2 mb 0.00 in0.0 mm 0.00 in0.0 mm 0.00 in0.0 mm
01:09 AM 46.9°F8.3°C 41.4°F5.2°C 81% 2.9 mph SSW4.7 kmh SSW 3.4 mph5.5 kmh 29.29 in991.9 mb 0.00 in0.0 mm 0.00 in0.0 mm 0.00 in0.0 mm
01:04 AM 46.8°F8.2°C 41.2°F5.1°C 81% 4.5 mph SSW7.2 kmh SSW 6.9 mph11.1 kmh 29.30 in992.2 mb 0.00 in0.0 mm 0.00 in0.0 mm 0.00 in0.0 mm
12:59 AM 47.1°F8.4°C 41.2°F5.1°C 80% 2.9 mph SSW4.7 kmh SSW 3.4 mph5.5 kmh 29.30 in992.2 mb 0.00 in0.0 mm 0.00 in0.0 mm 0.00 in0.0 mm
12:54 AM 47.3°F8.5°C 41.4°F5.2°C 80% 3.1 mph SSW5.0 kmh SSW 4.5 mph7.2 kmh 29.30 in992.2 mb 0.00 in0.0 mm 0.00 in0.0 mm 0.00 in0.0 mm
12:49 AM 47.3°F8.5°C 41.4°F5.2°C 80% 3.1 mph SW5.0 kmh SW 4.5 mph7.2 kmh 29.31 in992.6 mb 0.00 in0.0 mm 0.00 in0.0 mm 0.00 in0.0 mm
12:44 AM 47.7°F8.7°C 41.7°F5.4°C 80% 1.8 mph S2.9 kmh S 3.4 mph5.5 kmh 29.31 in992.6 mb 0.00 in0.0 mm 0.00 in0.0 mm 0.00 in0.0 mm
12:39 AM 47.7°F8.7°C 41.5°F5.3°C 79% 2.7 mph SW4.3 kmh SW 3.4 mph5.5 kmh 29.32 in992.9 mb 0.00 in0.0 mm 0.00 in0.0 mm 0.00 in0.0 mm
12:34 AM 47.8°F8.8°C 41.7°F5.4°C 79% 2.5 mph S4.0 kmh S 3.4 mph5.5 kmh 29.32 in992.9 mb 0.00 in0.0 mm 0.00 in0.0 mm 0.00 in0.0 mm
12:29 AM 48.0°F8.9°C 41.5°F5.3°C 78% 3.4 mph SW5.5 kmh SW 3.4 mph5.5 kmh 29.31 in992.6 mb 0.00 in0.0 mm 0.00 in0.0 mm 0.00 in0.0 mm
12:24 AM 48.0°F8.9°C 41.5°F5.3°C 78% 4.5 mph SW7.2 kmh SW 6.9 mph11.1 kmh 29.30 in992.2 mb 0.00 in0.0 mm 0.00 in0.0 mm 0.00 in0.0 mm
12:19 AM 48.0°F8.9°C 41.5°F5.3°C 78% 5.4 mph SW8.7 kmh SW 6.9 mph11.1 kmh 29.30 in992.2 mb 0.00 in0.0 mm 0.00 in0.0 mm 0.00 in0.0 mm
12:14 AM 48.2°F9.0°C 41.7°F5.4°C 78% 5.1 mph SW8.2 kmh SW 6.9 mph11.1 kmh 29.30 in992.2 mb 0.00 in0.0 mm 0.00 in0.0 mm 0.00 in0.0 mm
12:09 AM 48.2°F9.0°C 41.7°F5.4°C 78% 4.5 mph SW7.2 kmh SW 6.9 mph11.1 kmh 29.30 in992.2 mb 0.00 in0.0 mm 0.00 in0.0 mm 0.00 in0.0 mm
12:04 AM 48.4°F9.1°C 41.9°F5.5°C 78% 4.0 mph SW6.4 kmh SW 4.5 mph7.2 kmh 29.29 in991.9 mb 0.00 in0.0 mm 0.00 in0.0 mm 0.00 in0.0 mm